Time,TemperatureF,DewpointF,PressureIn,WindDirection,WindDirectionDegrees,WindSpeedMPH,WindSpeedGustMPH,Humidity,HourlyPrecipIn,Conditions,Clouds,dailyrainin,SolarRadiationWatts/m^2,SoftwareType,DateUTC
2013-06-19 13:50:00,68.7,53.3,30.01,ENE,73,9.0,9.0,58,0.00,,,0.00,907,HR-IXPWINDi_r2_v1.2.,2013-06-19 17:50:00,
2013-06-19 13:55:00,68.9,53.5,30.01,NE,49,8.0,16.0,58,0.00,,,0.00,896,HR-IXPWINDi_r2_v1.2.,2013-06-19 17:55:00,
2013-06-19 14:01:00,69.4,53.5,30.01,NE,53,5.0,16.0,57,0.00,,,0.00,893,HR-IXPWINDi_r2_v1.2.,2013-06-19 18:01:00,
2013-06-19 14:06:00,69.6,53.2,30.02,East,92,10.0,13.0,56,0.00,,,0.00,884,HR-IXPWINDi_r2_v1.2.,2013-06-19 18:06:00,
2013-06-19 14:11:00,68.0,52.1,30.02,ENE,69,9.0,14.0,57,0.00,,,0.00,879,HR-IXPWINDi_r2_v1.2.,2013-06-19 18:11:00,
2013-06-19 14:16:00,68.0,53.5,30.02,ENE,59,5.0,15.0,60,0.00,,,0.00,889,HR-IXPWINDi_r2_v1.2.,2013-06-19 18:16:00,
2013-06-19 14:21:00,68.8,52.4,30.02,East,92,7.0,15.0,56,0.00,,,0.00,879,HR-IXPWINDi_r2_v1.2.,2013-06-19 18:21:00,
2013-06-19 14:26:00,68.7,53.7,30.02,NNE,28,2.0,11.0,59,0.00,,,0.00,900,HR-IXPWINDi_r2_v1.2.,2013-06-19 18:26:00,
2013-06-19 14:31:00,67.7,52.3,30.02,East,87,7.0,16.0,58,0.00,,,0.00,900,HR-IXPWINDi_r2_v1.2.,2013-06-19 18:31:00,
2013-06-19 14:36:00,67.7,52.3,30.02,East,82,5.0,16.0,58,0.00,,,0.00,693,HR-IXPWINDi_r2_v1.2.,2013-06-19 18:36:00,
2013-06-19 14:42:00,67.0,51.7,30.02,ENE,72,13.0,14.0,58,0.00,,,0.00,220,HR-IXPWINDi_r2_v1.2.,2013-06-19 18:42:00,
2013-06-19 14:47:00,66.9,51.6,30.02,ENE,61,7.0,14.0,58,0.00,,,0.00,835,HR-IXPWINDi_r2_v1.2.,2013-06-19 18:47:00,
2013-06-19 14:52:00,67.0,53.1,30.02,ENE,76,2.0,15.0,61,0.00,,,0.00,835,HR-IXPWINDi_r2_v1.2.,2013-06-19 18:52:00,
2013-06-19 14:57:00,68.6,53.2,30.02,East,82,5.0,15.0,58,0.00,,,0.00,868,HR-IXPWINDi_r2_v1.2.,2013-06-19 18:57:00,
2013-06-19 15:02:00,67.5,53.1,30.02,East,92,0.0,10.0,60,0.00,,,0.00,826,HR-IXPWINDi_r2_v1.2.,2013-06-19 19:02:00,
2013-06-19 15:08:00,67.4,53.0,30.03,ESE,122,3.0,10.0,60,0.00,,,0.00,816,HR-IXPWINDi_r2_v1.2.,2013-06-19 19:08:00,
2013-06-19 15:13:00,67.9,53.9,30.02,NE,42,3.0,10.0,61,0.00,,,0.00,791,HR-IXPWINDi_r2_v1.2.,2013-06-19 19:13:00,
2013-06-19 15:18:00,68.3,52.9,30.02,ENE,78,4.0,10.0,58,0.00,,,0.00,780,HR-IXPWINDi_r2_v1.2.,2013-06-19 19:18:00,
2013-06-19 15:23:00,67.3,52.0,30.03,East,88,9.0,12.0,58,0.00,,,0.00,773,HR-IXPWINDi_r2_v1.2.,2013-06-19 19:23:00,
2013-06-19 15:28:00,65.9,52.0,30.03,East,98,8.0,13.0,61,0.00,,,0.00,780,HR-IXPWINDi_r2_v1.2.,2013-06-19 19:28:00,
2013-06-19 15:33:00,66.5,52.1,30.03,East,84,9.0,13.0,60,0.00,,,0.00,302,HR-IXPWINDi_r2_v1.2.,2013-06-19 19:33:00,
2013-06-19 15:38:00,65.3,51.9,30.03,ESE,109,5.0,12.0,62,0.00,,,0.00,749,HR-IXPWINDi_r2_v1.2.,2013-06-19 19:38:00,
2013-06-19 15:44:00,65.5,52.5,30.03,ENE,73,2.0,12.0,63,0.00,,,0.00,700,HR-IXPWINDi_r2_v1.2.,2013-06-19 19:44:00,
2013-06-19 15:49:00,67.0,53.1,30.03,ESE,105,3.0,10.0,61,0.00,,,0.00,192,HR-IXPWINDi_r2_v1.2.,2013-06-19 19:49:00,
2013-06-19 15:54:00,65.6,53.0,30.03,SE,129,5.0,8.0,64,0.00,,,0.00,216,HR-IXPWINDi_r2_v1.2.,2013-06-19 19:54:00,
2013-06-19 16:00:00,64.6,53.3,30.03,ESE,115,5.0,8.0,67,0.00,,,0.00,294,HR-IXPWINDi_r2_v1.2.,2013-06-19 20:00:00,
2013-06-19 16:05:00,65.2,53.1,30.03,SE,144,6.0,8.0,65,0.00,,,0.00,670,HR-IXPWINDi_r2_v1.2.,2013-06-19 20:05:00,
2013-06-19 16:10:00,66.2,54.0,30.03,South,172,1.0,8.0,65,0.00,,,0.00,647,HR-IXPWINDi_r2_v1.2.,2013-06-19 20:10:00,
2013-06-19 16:15:00,65.7,53.6,30.04,SE,140,7.0,9.0,65,0.00,,,0.00,633,HR-IXPWINDi_r2_v1.2.,2013-06-19 20:15:00,
2013-06-19 16:20:00,65.2,53.9,30.04,SSE,164,5.0,9.0,67,0.00,,,0.00,617,HR-IXPWINDi_r2_v1.2.,2013-06-19 20:20:00,
2013-06-19 16:26:00,65.2,54.3,30.03,South,171,3.0,8.0,68,0.00,,,0.00,606,HR-IXPWINDi_r2_v1.2.,2013-06-19 20:26:00,
2013-06-19 16:31:00,65.3,54.4,30.04,SSE,165,2.0,8.0,68,0.00,,,0.00,591,HR-IXPWINDi_r2_v1.2.,2013-06-19 20:31:00,
2013-06-19 16:36:00,65.9,55.8,30.04,SSE,149,3.0,7.0,70,0.00,,,0.00,577,HR-IXPWINDi_r2_v1.2.,2013-06-19 20:36:00,
2013-06-19 16:41:00,65.7,54.4,30.04,SSE,148,5.0,6.0,67,0.00,,,0.00,563,HR-IXPWINDi_r2_v1.2.,2013-06-19 20:41:00,
2013-06-19 16:46:00,64.9,54.0,30.04,SSE,151,7.0,7.0,68,0.00,,,0.00,548,HR-IXPWINDi_r2_v1.2.,2013-06-19 20:46:00,
2013-06-19 16:52:00,65.0,54.5,30.04,South,184,3.0,9.0,69,0.00,,,0.00,536,HR-IXPWINDi_r2_v1.2.,2013-06-19 20:52:00,
2013-06-19 16:57:00,65.1,55.0,30.04,SSE,159,3.0,9.0,70,0.00,,,0.00,520,HR-IXPWINDi_r2_v1.2.,2013-06-19 20:57:00,
2013-06-19 17:02:00,65.7,55.6,30.04,SSE,152,3.0,7.0,70,0.00,,,0.00,506,HR-IXPWINDi_r2_v1.2.,2013-06-19 21:02:00,
2013-06-19 17:07:00,65.1,54.6,30.04,SSE,159,4.0,7.0,69,0.00,,,0.00,490,HR-IXPWINDi_r2_v1.2.,2013-06-19 21:07:00,
2013-06-19 17:12:00,65.1,55.0,30.04,SSE,162,4.0,7.0,70,0.00,,,0.00,475,HR-IXPWINDi_r2_v1.2.,2013-06-19 21:12:00,
2013-06-19 17:17:00,64.7,55.0,30.04,SSE,164,2.0,7.0,71,0.00,,,0.00,461,HR-IXPWINDi_r2_v1.2.,2013-06-19 21:17:00,
2013-06-19 17:22:00,64.7,55.0,30.04,SSE,165,4.0,7.0,71,0.00,,,0.00,445,HR-IXPWINDi_r2_v1.2.,2013-06-19 21:22:00,
2013-06-19 17:27:00,64.4,54.7,30.03,SSE,160,4.0,8.0,71,0.00,,,0.00,431,HR-IXPWINDi_r2_v1.2.,2013-06-19 21:27:00,
2013-06-19 17:33:00,64.6,54.9,30.03,SSE,159,3.0,8.0,71,0.00,,,0.00,415,HR-IXPWINDi_r2_v1.2.,2013-06-19 21:33:00,
2013-06-19 17:38:00,64.6,55.3,30.03,SSE,163,5.0,8.0,72,0.00,,,0.00,399,HR-IXPWINDi_r2_v1.2.,2013-06-19 21:38:00,
2013-06-19 17:43:00,64.4,54.3,30.04,South,176,5.0,9.0,70,0.00,,,0.00,387,HR-IXPWINDi_r2_v1.2.,2013-06-19 21:43:00,
2013-06-19 17:49:00,64.4,54.7,30.04,SE,144,2.0,9.0,71,0.00,,,0.00,373,HR-IXPWINDi_r2_v1.2.,2013-06-19 21:49:00,
2013-06-19 17:54:00,64.9,54.8,30.04,SSE,157,3.0,8.0,70,0.00,,,0.00,357,HR-IXPWINDi_r2_v1.2.,2013-06-19 21:54:00,
2013-06-19 17:59:00,64.5,54.8,30.04,SSE,159,4.0,9.0,71,0.00,,,0.00,341,HR-IXPWINDi_r2_v1.2.,2013-06-19 21:59:00,
2013-06-19 18:04:00,64.4,54.7,30.04,SSE,155,4.0,9.0,71,0.00,,,0.00,325,HR-IXPWINDi_r2_v1.2.,2013-06-19 22:04:00,
2013-06-19 18:09:00,64.7,54.6,30.04,South,182,6.0,9.0,70,0.00,,,0.00,309,HR-IXPWINDi_r2_v1.2.,2013-06-19 22:09:00,
2013-06-19 18:15:00,64.4,54.3,30.04,SE,140,6.0,9.0,70,0.00,,,0.00,294,HR-IXPWINDi_r2_v1.2.,2013-06-19 22:15:00,
2013-06-19 18:20:00,64.2,54.2,30.04,SSE,163,5.0,11.0,70,0.00,,,0.00,276,HR-IXPWINDi_r2_v1.2.,2013-06-19 22:20:00,
2013-06-19 18:25:00,64.4,54.7,30.05,SW,228,1.0,11.0,71,0.00,,,0.00,258,HR-IXPWINDi_r2_v1.2.,2013-06-19 22:25:00,
2013-06-19 18:30:00,64.7,54.2,30.05,South,190,3.0,7.0,69,0.00,,,0.00,244,HR-IXPWINDi_r2_v1.2.,2013-06-19 22:30:00,
2013-06-19 18:36:00,64.8,53.9,30.05,South,171,3.0,6.0,68,0.00,,,0.00,229,HR-IXPWINDi_r2_v1.2.,2013-06-19 22:36:00,
2013-06-19 18:41:00,64.6,53.7,30.05,SSE,165,6.0,8.0,68,0.00,,,0.00,211,HR-IXPWINDi_r2_v1.2.,2013-06-19 22:41:00,
2013-06-19 18:46:00,64.2,53.8,30.05,SSE,164,8.0,10.0,69,0.00,,,0.00,192,HR-IXPWINDi_r2_v1.2.,2013-06-19 22:46:00,
2013-06-19 18:51:00,64.2,53.8,30.05,SSE,158,2.0,10.0,69,0.00,,,0.00,171,HR-IXPWINDi_r2_v1.2.,2013-06-19 22:51:00,
2013-06-19 18:57:00,64.5,53.2,30.06,South,175,4.0,10.0,67,0.00,,,0.00,156,HR-IXPWINDi_r2_v1.2.,2013-06-19 22:57:00,
2013-06-19 19:02:00,64.3,53.5,30.06,SSE,162,9.0,9.0,68,0.00,,,0.00,135,HR-IXPWINDi_r2_v1.2.,2013-06-19 23:02:00,
2013-06-19 19:07:00,64.1,53.7,30.06,South,173,1.0,10.0,69,0.00,,,0.00,120,HR-IXPWINDi_r2_v1.2.,2013-06-19 23:07:00,
2013-06-19 19:12:00,64.3,53.5,30.06,SSE,166,5.0,10.0,68,0.00,,,0.00,102,HR-IXPWINDi_r2_v1.2.,2013-06-19 23:12:00,
2013-06-19 19:17:00,64.1,53.7,30.06,South,171,8.0,9.0,69,0.00,,,0.00,90,HR-IXPWINDi_r2_v1.2.,2013-06-19 23:17:00,
2013-06-19 19:22:00,64.0,53.6,30.06,SSE,162,5.0,9.0,69,0.00,,,0.00,76,HR-IXPWINDi_r2_v1.2.,2013-06-19 23:22:00,
2013-06-19 19:28:00,64.0,53.6,30.06,SE,145,2.0,8.0,69,0.00,,,0.00,63,HR-IXPWINDi_r2_v1.2.,2013-06-19 23:28:00,
2013-06-19 19:33:00,63.9,53.5,30.06,SSE,167,1.0,8.0,69,0.00,,,0.00,53,HR-IXPWINDi_r2_v1.2.,2013-06-19 23:33:00,
2013-06-19 19:38:00,63.9,53.5,30.06,South,173,6.0,8.0,69,0.00,,,0.00,42,HR-IXPWINDi_r2_v1.2.,2013-06-19 23:38:00,
2013-06-19 19:43:00,63.7,53.3,30.06,South,170,3.0,8.0,69,0.00,,,0.00,33,HR-IXPWINDi_r2_v1.2.,2013-06-19 23:43:00,
2013-06-19 19:49:00,63.7,53.3,30.07,SSE,167,5.0,8.0,69,0.00,,,0.00,28,HR-IXPWINDi_r2_v1.2.,2013-06-19 23:49:00,
2013-06-19 19:54:00,63.5,53.5,30.07,SSE,167,4.0,11.0,70,0.00,,,0.00,21,HR-IXPWINDi_r2_v1.2.,2013-06-19 23:54:00,
2013-06-19 19:59:00,63.4,53.4,30.07,SE,134,4.0,11.0,70,0.00,,,0.00,18,HR-IXPWINDi_r2_v1.2.,2013-06-19 23:59:00,
2013-06-19 20:04:00,63.4,53.4,30.07,SE,145,4.0,8.0,70,0.00,,,0.00,14,HR-IXPWINDi_r2_v1.2.,2013-06-20 00:04:00,
2013-06-19 20:09:00,63.5,52.7,30.07,SE,135,3.0,8.0,68,0.00,,,0.00,11,HR-IXPWINDi_r2_v1.2.,2013-06-20 00:09:00,
2013-06-19 20:14:00,63.4,52.2,30.07,SSE,161,6.0,8.0,67,0.00,,,0.00,9,HR-IXPWINDi_r2_v1.2.,2013-06-20 00:14:00,
2013-06-19 20:20:00,63.5,52.3,30.08,SE,138,3.0,9.0,67,0.00,,,0.00,5,HR-IXPWINDi_r2_v1.2.,2013-06-20 00:20:00,
2013-06-19 20:25:00,63.5,53.1,30.08,SSE,157,5.0,9.0,69,0.00,,,0.00,0,HR-IXPWINDi_r2_v1.2.,2013-06-20 00:25:00,
2013-06-19 20:30:00,63.4,53.8,30.08,South,184,3.0,8.0,71,0.00,,,0.00,0,HR-IXPWINDi_r2_v1.2.,2013-06-20 00:30:00,
2013-06-19 20:35:00,63.2,54.7,30.08,SSE,167,1.0,6.0,74,0.00,,,0.00,0,HR-IXPWINDi_r2_v1.2.,2013-06-20 00:35:00,
2013-06-19 20:41:00,63.1,55.4,30.08,SSE,167,0.0,4.0,76,0.00,,,0.00,0,HR-IXPWINDi_r2_v1.2.,2013-06-20 00:41:00,
2013-06-19 20:46:00,63.1,55.7,30.08,South,179,1.0,3.0,77,0.00,,,0.00,0,HR-IXPWINDi_r2_v1.2.,2013-06-20 00:46:00,
2013-06-19 20:51:00,62.9,55.2,30.09,SSE,148,2.0,3.0,76,0.00,,,0.00,0,HR-IXPWINDi_r2_v1.2.,2013-06-20 00:51:00,
2013-06-19 20:56:00,62.8,54.3,30.09,South,181,3.0,6.0,74,0.00,,,0.00,0,HR-IXPWINDi_r2_v1.2.,2013-06-20 00:56:00,
2013-06-19 21:01:00,62.9,55.2,30.09,South,171,0.0,6.0,76,0.00,,,0.00,0,HR-IXPWINDi_r2_v1.2.,2013-06-20 01:01:00,
2013-06-19 21:07:00,62.8,55.1,30.10,South,169,4.0,5.0,76,0.00,,,0.00,0,HR-IXPWINDi_r2_v1.2.,2013-06-20 01:07:00,
2013-06-19 21:12:00,62.6,54.9,30.10,SSE,167,2.0,5.0,76,0.00,,,0.00,0,HR-IXPWINDi_r2_v1.2.,2013-06-20 01:12:00,
2013-06-19 21:17:00,62.5,55.1,30.10,SSE,157,1.0,5.0,77,0.00,,,0.00,0,HR-IXPWINDi_r2_v1.2.,2013-06-20 01:17:00,
2013-06-19 21:22:00,62.4,55.4,30.11,South,169,3.0,6.0,78,0.00,,,0.00,0,HR-IXPWINDi_r2_v1.2.,2013-06-20 01:22:00,
2013-06-19 21:28:00,62.6,55.2,30.11,SSE,167,2.0,6.0,77,0.00,,,0.00,0,HR-IXPWINDi_r2_v1.2.,2013-06-20 01:28:00,
2013-06-19 21:33:00,62.7,55.3,30.11,SSE,165,1.0,4.0,77,0.00,,,0.00,0,HR-IXPWINDi_r2_v1.2.,2013-06-20 01:33:00,
2013-06-19 21:38:00,62.8,55.1,30.12,South,183,6.0,7.0,76,0.00,,,0.00,0,HR-IXPWINDi_r2_v1.2.,2013-06-20 01:38:00,
2013-06-19 21:43:00,63.0,54.9,30.12,South,182,5.0,7.0,75,0.00,,,0.00,0,HR-IXPWINDi_r2_v1.2.,2013-06-20 01:43:00,
2013-06-19 21:48:00,63.0,55.3,30.12,South,181,8.0,8.0,76,0.00,,,0.00,0,HR-IXPWINDi_r2_v1.2.,2013-06-20 01:48:00,
2013-06-19 21:53:00,63.0,54.9,30.12,South,183,10.0,10.0,75,0.00,,,0.00,0,HR-IXPWINDi_r2_v1.2.,2013-06-20 01:53:00,
2013-06-19 21:59:00,63.1,54.2,30.12,South,184,6.0,10.0,73,0.00,,,0.00,0,HR-IXPWINDi_r2_v1.2.,2013-06-20 01:59:00,
2013-06-19 22:04:00,63.1,54.2,30.12,SSW,193,7.0,10.0,73,0.00,,,0.00,0,HR-IXPWINDi_r2_v1.2.,2013-06-20 02:04:00,
2013-06-19 22:09:00,63.2,54.3,30.13,South,180,4.0,8.0,73,0.00,,,0.00,0,HR-IXPWINDi_r2_v1.2.,2013-06-20 02:09:00,
2013-06-19 22:14:00,63.2,54.0,30.13,SSW,193,4.0,8.0,72,0.00,,,0.00,0,HR-IXPWINDi_r2_v1.2.,2013-06-20 02:14:00,
2013-06-19 22:19:00,63.2,54.0,30.13,South,182,4.0,6.0,72,0.00,,,0.00,0,HR-IXPWINDi_r2_v1.2.,2013-06-20 02:19:00,
2013-06-19 22:25:00,63.1,54.2,30.13,South,182,5.0,5.0,73,0.00,,,0.00,0,HR-IXPWINDi_r2_v1.2.,2013-06-20 02:25:00,
2013-06-19 22:30:00,62.9,54.4,30.13,South,181,3.0,5.0,74,0.00,,,0.00,0,HR-IXPWINDi_r2_v1.2.,2013-06-20 02:30:00,
2013-06-19 22:35:00,62.8,54.3,30.13,South,183,5.0,5.0,74,0.00,,,0.00,0,HR-IXPWINDi_r2_v1.2.,2013-06-20 02:35:00,
2013-06-19 22:40:00,62.8,53.6,30.13,South,185,5.0,6.0,72,0.00,,,0.00,0,HR-IXPWINDi_r2_v1.2.,2013-06-20 02:40:00,
2013-06-19 22:46:00,62.9,53.3,30.13,South,184,6.0,6.0,71,0.00,,,0.00,0,HR-IXPWINDi_r2_v1.2.,2013-06-20 02:46:00,
2013-06-19 22:51:00,62.8,54.0,30.13,SSW,194,4.0,6.0,73,0.00,,,0.00,0,HR-IXPWINDi_r2_v1.2.,2013-06-20 02:51:00,
2013-06-19 22:56:00,62.8,54.0,30.13,South,184,5.0,6.0,73,0.00,,,0.00,0,HR-IXPWINDi_r2_v1.2.,2013-06-20 02:56:00,
2013-06-19 23:01:00,62.6,54.1,30.13,South,187,6.0,6.0,74,0.00,,,0.00,0,HR-IXPWINDi_r2_v1.2.,2013-06-20 03:01:00,
2013-06-19 23:06:00,62.6,54.5,30.13,South,185,5.0,6.0,75,0.00,,,0.00,0,HR-IXPWINDi_r2_v1.2.,2013-06-20 03:06:00,
2013-06-19 23:11:00,62.4,54.3,30.13,South,177,4.0,6.0,75,0.00,,,0.00,0,HR-IXPWINDi_r2_v1.2.,2013-06-20 03:11:00,
2013-06-19 23:17:00,62.2,54.5,30.13,South,186,6.0,6.0,76,0.00,,,0.00,0,HR-IXPWINDi_r2_v1.2.,2013-06-20 03:17:00,
2013-06-19 23:22:00,62.2,54.8,30.14,South,188,4.0,7.0,77,0.00,,,0.00,0,HR-IXPWINDi_r2_v1.2.,2013-06-20 03:22:00,
2013-06-19 23:27:00,62.1,55.1,30.14,South,188,4.0,7.0,78,0.00,,,0.00,0,HR-IXPWINDi_r2_v1.2.,2013-06-20 03:27:00,
2013-06-19 23:32:00,61.9,55.3,30.14,South,178,3.0,6.0,79,0.00,,,0.00,0,HR-IXPWINDi_r2_v1.2.,2013-06-20 03:32:00,
2013-06-19 23:38:00,61.9,55.3,30.14,South,186,4.0,6.0,79,0.00,,,0.00,0,HR-IXPWINDi_r2_v1.2.,2013-06-20 03:38:00,
2013-06-19 23:43:00,61.8,55.5,30.14,South,184,5.0,6.0,80,0.00,,,0.00,0,HR-IXPWINDi_r2_v1.2.,2013-06-20 03:43:00,
2013-06-19 23:48:00,61.8,55.5,30.14,South,184,5.0,6.0,80,0.00,,,0.00,0,HR-IXPWINDi_r2_v1.2.,2013-06-20 03:48:00,
2013-06-19 23:53:00,61.8,55.5,30.14,South,185,5.0,6.0,80,0.00,,,0.00,0,HR-IXPWINDi_r2_v1.2.,2013-06-20 03:53:00,
2013-06-19 23:58:00,62.0,55.3,30.14,South,186,4.0,6.0,79,0.00,,,0.00,0,HR-IXPWINDi_r2_v1.2.,2013-06-20 03:58:00,